sensor_id;sensor_type;location;lat;lon;timestamp;temperature;humidity
26270;DHT22;15937;50.612;6.656;2022-09-14T00:01:20;18.50;99.90
26270;DHT22;15937;50.612;6.656;2022-09-14T00:05:26;18.50;99.90
26270;DHT22;15937;50.612;6.656;2022-09-14T00:09:28;18.50;99.90
26270;DHT22;15937;50.612;6.656;2022-09-14T00:13:30;18.50;99.90
26270;DHT22;15937;50.612;6.656;2022-09-14T00:17:32;18.50;99.90
26270;DHT22;15937;50.612;6.656;2022-09-14T00:21:34;18.40;99.90
26270;DHT22;15937;50.612;6.656;2022-09-14T00:25:36;18.40;99.90
26270;DHT22;15937;50.612;6.656;2022-09-14T00:29:38;18.40;99.90
26270;DHT22;15937;50.612;6.656;2022-09-14T00:33:40;18.40;99.90
26270;DHT22;15937;50.612;6.656;2022-09-14T00:37:42;18.40;99.90
26270;DHT22;15937;50.612;6.656;2022-09-14T00:41:44;18.30;99.90
26270;DHT22;15937;50.612;6.656;2022-09-14T00:45:46;18.30;99.90
26270;DHT22;15937;50.612;6.656;2022-09-14T00:49:48;18.30;99.90
26270;DHT22;15937;50.612;6.656;2022-09-14T00:53:50;18.30;99.90
26270;DHT22;15937;50.612;6.656;2022-09-14T00:57:52;18.20;99.90
26270;DHT22;15937;50.612;6.656;2022-09-14T01:01:54;18.20;99.90
26270;DHT22;15937;50.612;6.656;2022-09-14T01:06:00;18.30;99.90
26270;DHT22;15937;50.612;6.656;2022-09-14T01:10:24;18.30;99.90
26270;DHT22;15937;50.612;6.656;2022-09-14T01:14:36;18.30;99.90
26270;DHT22;15937;50.612;6.656;2022-09-14T01:23:00;18.20;99.90
26270;DHT22;15937;50.612;6.656;2022-09-14T01:27:09;18.20;99.90
26270;DHT22;15937;50.612;6.656;2022-09-14T01:31:15;18.20;99.90
26270;DHT22;15937;50.612;6.656;2022-09-14T01:39:20;18.10;99.90
26270;DHT22;15937;50.612;6.656;2022-09-14T01:43:24;18.10;99.90
26270;DHT22;15937;50.612;6.656;2022-09-14T01:47:30;18.20;99.90
26270;DHT22;15937;50.612;6.656;2022-09-14T01:51:36;18.30;99.90
26270;DHT22;15937;50.612;6.656;2022-09-14T01:55:41;18.30;99.90
26270;DHT22;15937;50.612;6.656;2022-09-14T01:59:44;18.20;99.90
26270;DHT22;15937;50.612;6.656;2022-09-14T02:03:48;18.20;99.90
26270;DHT22;15937;50.612;6.656;2022-09-14T02:07:50;18.20;99.90
26270;DHT22;15937;50.612;6.656;2022-09-14T02:11:53;18.20;99.90
26270;DHT22;15937;50.612;6.656;2022-09-14T02:15:55;18.20;99.90
26270;DHT22;15937;50.612;6.656;2022-09-14T02:19:58;18.10;99.90
26270;DHT22;15937;50.612;6.656;2022-09-14T02:24:00;18.00;99.90
26270;DHT22;15937;50.612;6.656;2022-09-14T02:28:02;18.10;99.90
26270;DHT22;15937;50.612;6.656;2022-09-14T02:32:14;18.10;99.90
26270;DHT22;15937;50.612;6.656;2022-09-14T02:36:24;18.10;99.90
26270;DHT22;15937;50.612;6.656;2022-09-14T02:48:40;18.10;99.90
26270;DHT22;15937;50.612;6.656;2022-09-14T02:52:51;18.00;99.90
26270;DHT22;15937;50.612;6.656;2022-09-14T02:57:00;18.00;99.90
26270;DHT22;15937;50.612;6.656;2022-09-14T03:01:02;18.00;99.90
26270;DHT22;15937;50.612;6.656;2022-09-14T03:05:04;18.00;99.90
26270;DHT22;15937;50.612;6.656;2022-09-14T03:09:06;18.00;99.90
26270;DHT22;15937;50.612;6.656;2022-09-14T03:13:08;18.10;99.90
26270;DHT22;15937;50.612;6.656;2022-09-14T03:17:09;18.00;99.90
26270;DHT22;15937;50.612;6.656;2022-09-14T03:21:12;17.90;99.90
26270;DHT22;15937;50.612;6.656;2022-09-14T03:25:14;17.90;99.90
26270;DHT22;15937;50.612;6.656;2022-09-14T03:29:15;18.10;99.90
26270;DHT22;15937;50.612;6.656;2022-09-14T03:33:17;18.10;99.90
26270;DHT22;15937;50.612;6.656;2022-09-14T03:37:18;18.10;99.90
26270;DHT22;15937;50.612;6.656;2022-09-14T03:41:21;18.00;99.90
26270;DHT22;15937;50.612;6.656;2022-09-14T03:45:23;17.90;99.90
26270;DHT22;15937;50.612;6.656;2022-09-14T03:49:24;17.90;99.90
26270;DHT22;15937;50.612;6.656;2022-09-14T03:53:26;18.00;99.90
26270;DHT22;15937;50.612;6.656;2022-09-14T03:57:28;18.00;99.90
26270;DHT22;15937;50.612;6.656;2022-09-14T04:01:29;18.10;99.90
26270;DHT22;15937;50.612;6.656;2022-09-14T04:05:33;18.10;99.90
26270;DHT22;15937;50.612;6.656;2022-09-14T04:09:34;18.10;99.90
26270;DHT22;15937;50.612;6.656;2022-09-14T04:13:36;18.00;99.90
26270;DHT22;15937;50.612;6.656;2022-09-14T04:17:38;18.10;99.90
26270;DHT22;15937;50.612;6.656;2022-09-14T04:21:40;18.10;99.90
26270;DHT22;15937;50.612;6.656;2022-09-14T04:25:42;18.10;99.90
26270;DHT22;15937;50.612;6.656;2022-09-14T04:29:43;17.90;99.90
26270;DHT22;15937;50.612;6.656;2022-09-14T04:33:45;17.90;99.90
26270;DHT22;15937;50.612;6.656;2022-09-14T04:37:49;18.00;99.90
26270;DHT22;15937;50.612;6.656;2022-09-14T04:41:51;18.00;99.90
26270;DHT22;15937;50.612;6.656;2022-09-14T04:45:52;18.00;99.90
26270;DHT22;15937;50.612;6.656;2022-09-14T04:49:54;18.00;99.90
26270;DHT22;15937;50.612;6.656;2022-09-14T04:53:56;17.90;99.90
26270;DHT22;15937;50.612;6.656;2022-09-14T04:57:59;17.90;99.90
26270;DHT22;15937;50.612;6.656;2022-09-14T05:02:01;18.00;99.90
26270;DHT22;15937;50.612;6.656;2022-09-14T05:06:07;17.90;99.90
26270;DHT22;15937;50.612;6.656;2022-09-14T05:10:09;17.80;99.90
26270;DHT22;15937;50.612;6.656;2022-09-14T05:14:12;17.80;99.90
26270;DHT22;15937;50.612;6.656;2022-09-14T05:18:13;17.80;99.90
26270;DHT22;15937;50.612;6.656;2022-09-14T05:22:15;17.80;99.90
26270;DHT22;15937;50.612;6.656;2022-09-14T05:26:16;17.70;99.90
26270;DHT22;15937;50.612;6.656;2022-09-14T05:30:18;17.70;99.90
26270;DHT22;15937;50.612;6.656;2022-09-14T05:34:20;17.80;99.90
26270;DHT22;15937;50.612;6.656;2022-09-14T05:38:21;17.80;99.90
26270;DHT22;15937;50.612;6.656;2022-09-14T05:42:23;17.70;99.90
26270;DHT22;15937;50.612;6.656;2022-09-14T05:46:24;17.70;99.90
26270;DHT22;15937;50.612;6.656;2022-09-14T05:50:26;17.60;99.90
26270;DHT22;15937;50.612;6.656;2022-09-14T05:54:28;17.60;99.90
26270;DHT22;15937;50.612;6.656;2022-09-14T05:58:30;17.60;99.90
26270;DHT22;15937;50.612;6.656;2022-09-14T06:02:31;17.60;99.90
26270;DHT22;15937;50.612;6.656;2022-09-14T06:06:33;17.70;99.90
26270;DHT22;15937;50.612;6.656;2022-09-14T06:10:35;17.70;99.90
26270;DHT22;15937;50.612;6.656;2022-09-14T06:14:36;17.80;99.90
26270;DHT22;15937;50.612;6.656;2022-09-14T06:18:38;17.60;99.90
26270;DHT22;15937;50.612;6.656;2022-09-14T06:22:40;17.60;99.90
26270;DHT22;15937;50.612;6.656;2022-09-14T06:26:42;17.60;99.90
26270;DHT22;15937;50.612;6.656;2022-09-14T06:30:43;17.50;99.90
26270;DHT22;15937;50.612;6.656;2022-09-14T06:34:45;17.60;99.90
26270;DHT22;15937;50.612;6.656;2022-09-14T06:38:47;17.60;99.90
26270;DHT22;15937;50.612;6.656;2022-09-14T06:42:50;17.50;99.90
26270;DHT22;15937;50.612;6.656;2022-09-14T06:46:51;17.60;99.90
26270;DHT22;15937;50.612;6.656;2022-09-14T06:50:53;17.50;99.90
26270;DHT22;15937;50.612;6.656;2022-09-14T06:54:55;17.60;99.90
26270;DHT22;15937;50.612;6.656;2022-09-14T06:58:57;17.60;99.90
26270;DHT22;15937;50.612;6.656;2022-09-14T07:02:58;17.70;99.90
26270;DHT22;15937;50.612;6.656;2022-09-14T07:07:00;17.70;99.90
26270;DHT22;15937;50.612;6.656;2022-09-14T07:11:02;17.60;99.90
26270;DHT22;15937;50.612;6.656;2022-09-14T07:15:04;17.70;99.90
26270;DHT22;15937;50.612;6.656;2022-09-14T07:19:09;17.70;99.90
26270;DHT22;15937;50.612;6.656;2022-09-14T07:23:11;17.80;99.90
26270;DHT22;15937;50.612;6.656;2022-09-14T07:27:13;17.70;99.90
26270;DHT22;15937;50.612;6.656;2022-09-14T07:31:39;17.80;99.90
26270;DHT22;15937;50.612;6.656;2022-09-14T07:35:37;17.90;99.90
26270;DHT22;15937;50.612;6.656;2022-09-14T07:39:38;17.70;99.90
26270;DHT22;15937;50.612;6.656;2022-09-14T07:43:40;17.80;99.90
26270;DHT22;15937;50.612;6.656;2022-09-14T07:47:42;17.90;99.90
26270;DHT22;15937;50.612;6.656;2022-09-14T07:51:43;17.60;99.90
26270;DHT22;15937;50.612;6.656;2022-09-14T07:55:45;17.30;99.90
26270;DHT22;15937;50.612;6.656;2022-09-14T07:59:47;17.20;99.90
26270;DHT22;15937;50.612;6.656;2022-09-14T08:03:48;17.10;99.90
26270;DHT22;15937;50.612;6.656;2022-09-14T08:07:53;17.10;99.90
26270;DHT22;15937;50.612;6.656;2022-09-14T08:11:56;17.10;99.90
26270;DHT22;15937;50.612;6.656;2022-09-14T08:15:58;17.00;99.90
26270;DHT22;15937;50.612;6.656;2022-09-14T08:20:01;17.00;99.90
26270;DHT22;15937;50.612;6.656;2022-09-14T08:24:03;16.80;99.90
26270;DHT22;15937;50.612;6.656;2022-09-14T08:28:05;16.90;99.90
26270;DHT22;15937;50.612;6.656;2022-09-14T08:32:06;16.80;99.90
26270;DHT22;15937;50.612;6.656;2022-09-14T08:36:08;16.90;99.90
26270;DHT22;15937;50.612;6.656;2022-09-14T08:40:11;16.80;99.90
26270;DHT22;15937;50.612;6.656;2022-09-14T08:48:21;16.90;99.90
26270;DHT22;15937;50.612;6.656;2022-09-14T08:52:32;16.90;99.90
26270;DHT22;15937;50.612;6.656;2022-09-14T08:56:34;16.90;99.90
26270;DHT22;15937;50.612;6.656;2022-09-14T09:00:53;16.80;99.90
26270;DHT22;15937;50.612;6.656;2022-09-14T09:05:18;16.70;99.90
26270;DHT22;15937;50.612;6.656;2022-09-14T09:13:24;16.80;99.90
26270;DHT22;15937;50.612;6.656;2022-09-14T09:17:28;16.70;99.90
26270;DHT22;15937;50.612;6.656;2022-09-14T09:21:32;16.70;99.90
26270;DHT22;15937;50.612;6.656;2022-09-14T09:25:59;16.80;99.90
26270;DHT22;15937;50.612;6.656;2022-09-14T09:29:57;16.60;99.90
26270;DHT22;15937;50.612;6.656;2022-09-14T09:33:59;16.80;99.90
26270;DHT22;15937;50.612;6.656;2022-09-14T09:38:01;16.80;99.90
26270;DHT22;15937;50.612;6.656;2022-09-14T09:42:06;16.90;99.90
26270;DHT22;15937;50.612;6.656;2022-09-14T09:46:08;16.80;99.90
26270;DHT22;15937;50.612;6.656;2022-09-14T09:58:22;16.90;99.90
26270;DHT22;15937;50.612;6.656;2022-09-14T10:02:28;17.10;99.90
26270;DHT22;15937;50.612;6.656;2022-09-14T10:06:31;17.00;99.90
26270;DHT22;15937;50.612;6.656;2022-09-14T10:10:41;17.00;99.90
26270;DHT22;15937;50.612;6.656;2022-09-14T10:14:43;17.00;99.90
26270;DHT22;15937;50.612;6.656;2022-09-14T10:18:47;17.00;99.90
26270;DHT22;15937;50.612;6.656;2022-09-14T10:22:49;17.00;99.90
26270;DHT22;15937;50.612;6.656;2022-09-14T10:26:51;17.00;99.90
26270;DHT22;15937;50.612;6.656;2022-09-14T10:35:14;17.00;99.90
26270;DHT22;15937;50.612;6.656;2022-09-14T10:43:24;17.00;99.90
26270;DHT22;15937;50.612;6.656;2022-09-14T10:51:43;16.90;99.90
26270;DHT22;15937;50.612;6.656;2022-09-14T11:00:09;17.10;99.90
26270;DHT22;15937;50.612;6.656;2022-09-14T11:04:23;17.20;99.90
26270;DHT22;15937;50.612;6.656;2022-09-14T11:08:49;17.20;99.90
26270;DHT22;15937;50.612;6.656;2022-09-14T11:13:01;17.30;99.90
26270;DHT22;15937;50.612;6.656;2022-09-14T11:17:11;17.10;99.90
26270;DHT22;15937;50.612;6.656;2022-09-14T11:25:41;16.90;99.90
26270;DHT22;15937;50.612;6.656;2022-09-14T11:29:46;17.10;99.90
26270;DHT22;15937;50.612;6.656;2022-09-14T11:34:02;17.20;99.90
26270;DHT22;15937;50.612;6.656;2022-09-14T11:38:10;17.40;99.90
26270;DHT22;15937;50.612;6.656;2022-09-14T11:42:14;17.20;99.90
26270;DHT22;15937;50.612;6.656;2022-09-14T11:46:19;17.20;99.90
26270;DHT22;15937;50.612;6.656;2022-09-14T11:50:26;17.30;99.90
26270;DHT22;15937;50.612;6.656;2022-09-14T11:54:28;17.50;99.90
26270;DHT22;15937;50.612;6.656;2022-09-14T11:58:30;17.30;99.90
26270;DHT22;15937;50.612;6.656;2022-09-14T12:10:57;17.20;99.90
26270;DHT22;15937;50.612;6.656;2022-09-14T12:14:59;17.10;99.90
26270;DHT22;15937;50.612;6.656;2022-09-14T12:19:01;17.50;99.90
26270;DHT22;15937;50.612;6.656;2022-09-14T12:27:19;17.30;99.90
26270;DHT22;15937;50.612;6.656;2022-09-14T12:31:29;17.30;99.90
26270;DHT22;15937;50.612;6.656;2022-09-14T12:39:34;17.10;99.90
26270;DHT22;15937;50.612;6.656;2022-09-14T12:47:38;16.90;99.90
26270;DHT22;15937;50.612;6.656;2022-09-14T12:51:46;16.80;99.90
26270;DHT22;15937;50.612;6.656;2022-09-14T12:55:51;16.90;99.90
26270;DHT22;15937;50.612;6.656;2022-09-14T13:04:12;16.80;99.90
26270;DHT22;15937;50.612;6.656;2022-09-14T13:08:16;16.70;99.90
26270;DHT22;15937;50.612;6.656;2022-09-14T13:12:25;16.70;99.90
26270;DHT22;15937;50.612;6.656;2022-09-14T13:16:37;16.70;99.90
26270;DHT22;15937;50.612;6.656;2022-09-14T13:20:39;16.60;99.90
26270;DHT22;15937;50.612;6.656;2022-09-14T13:24:49;16.40;99.90
26270;DHT22;15937;50.612;6.656;2022-09-14T13:28:52;16.50;99.90
26270;DHT22;15937;50.612;6.656;2022-09-14T13:32:55;16.40;99.90
26270;DHT22;15937;50.612;6.656;2022-09-14T13:36:56;16.40;99.90
26270;DHT22;15937;50.612;6.656;2022-09-14T13:41:05;16.40;99.90
26270;DHT22;15937;50.612;6.656;2022-09-14T13:45:08;16.50;99.90
26270;DHT22;15937;50.612;6.656;2022-09-14T13:49:12;16.60;99.90
26270;DHT22;15937;50.612;6.656;2022-09-14T13:57:34;16.50;99.90
26270;DHT22;15937;50.612;6.656;2022-09-14T14:01:40;16.50;99.90
26270;DHT22;15937;50.612;6.656;2022-09-14T14:05:42;16.30;99.90
26270;DHT22;15937;50.612;6.656;2022-09-14T14:13:45;16.20;99.90
26270;DHT22;15937;50.612;6.656;2022-09-14T14:17:47;16.30;99.90
26270;DHT22;15937;50.612;6.656;2022-09-14T14:21:48;16.10;99.90
26270;DHT22;15937;50.612;6.656;2022-09-14T14:25:51;16.10;99.90
26270;DHT22;15937;50.612;6.656;2022-09-14T14:29:54;16.20;99.90
26270;DHT22;15937;50.612;6.656;2022-09-14T14:33:57;16.10;99.90
26270;DHT22;15937;50.612;6.656;2022-09-14T14:37:59;16.00;99.90
26270;DHT22;15937;50.612;6.656;2022-09-14T14:42:01;16.00;99.90
26270;DHT22;15937;50.612;6.656;2022-09-14T14:46:03;16.10;99.90
26270;DHT22;15937;50.612;6.656;2022-09-14T14:50:16;16.00;99.90
26270;DHT22;15937;50.612;6.656;2022-09-14T14:54:18;15.90;99.90
26270;DHT22;15937;50.612;6.656;2022-09-14T14:58:20;16.00;99.90
26270;DHT22;15937;50.612;6.656;2022-09-14T15:02:22;15.90;99.90
26270;DHT22;15937;50.612;6.656;2022-09-14T15:06:25;16.00;99.90
26270;DHT22;15937;50.612;6.656;2022-09-14T15:10:27;16.00;99.90
26270;DHT22;15937;50.612;6.656;2022-09-14T15:14:29;15.90;99.90
26270;DHT22;15937;50.612;6.656;2022-09-14T15:18:31;16.00;99.90
26270;DHT22;15937;50.612;6.656;2022-09-14T15:22:32;16.00;99.90
26270;DHT22;15937;50.612;6.656;2022-09-14T15:26:34;16.10;99.90
26270;DHT22;15937;50.612;6.656;2022-09-14T15:30:36;16.00;99.90
26270;DHT22;15937;50.612;6.656;2022-09-14T15:34:37;16.00;99.90
26270;DHT22;15937;50.612;6.656;2022-09-14T15:38:39;16.10;99.90
26270;DHT22;15937;50.612;6.656;2022-09-14T15:42:41;16.20;99.90
26270;DHT22;15937;50.612;6.656;2022-09-14T15:46:42;16.30;99.90
26270;DHT22;15937;50.612;6.656;2022-09-14T15:50:46;16.30;99.90
26270;DHT22;15937;50.612;6.656;2022-09-14T15:54:48;16.40;99.90
26270;DHT22;15937;50.612;6.656;2022-09-14T15:58:50;16.30;99.90
26270;DHT22;15937;50.612;6.656;2022-09-14T16:02:52;16.30;99.90
26270;DHT22;15937;50.612;6.656;2022-09-14T16:06:53;16.50;99.90
26270;DHT22;15937;50.612;6.656;2022-09-14T16:10:56;16.30;99.90
26270;DHT22;15937;50.612;6.656;2022-09-14T16:14:57;16.40;99.90
26270;DHT22;15937;50.612;6.656;2022-09-14T16:19:03;16.40;99.90
26270;DHT22;15937;50.612;6.656;2022-09-14T16:23:05;16.30;99.90
26270;DHT22;15937;50.612;6.656;2022-09-14T16:27:06;16.40;99.90
26270;DHT22;15937;50.612;6.656;2022-09-14T16:31:09;16.50;99.90
26270;DHT22;15937;50.612;6.656;2022-09-14T16:35:11;16.30;99.90
26270;DHT22;15937;50.612;6.656;2022-09-14T16:39:13;16.30;99.90
26270;DHT22;15937;50.612;6.656;2022-09-14T16:43:15;16.30;99.90
26270;DHT22;15937;50.612;6.656;2022-09-14T16:47:16;16.30;99.90
26270;DHT22;15937;50.612;6.656;2022-09-14T16:51:19;16.10;99.90
26270;DHT22;15937;50.612;6.656;2022-09-14T16:55:21;16.20;99.90
26270;DHT22;15937;50.612;6.656;2022-09-14T16:59:23;16.20;99.90
26270;DHT22;15937;50.612;6.656;2022-09-14T17:03:25;16.30;99.90
26270;DHT22;15937;50.612;6.656;2022-09-14T17:07:32;16.20;99.90
26270;DHT22;15937;50.612;6.656;2022-09-14T17:11:35;16.10;99.90
26270;DHT22;15937;50.612;6.656;2022-09-14T17:15:37;16.00;99.90
26270;DHT22;15937;50.612;6.656;2022-09-14T17:19:38;15.90;99.90
26270;DHT22;15937;50.612;6.656;2022-09-14T17:23:44;15.90;99.90
26270;DHT22;15937;50.612;6.656;2022-09-14T17:27:47;15.70;99.90
26270;DHT22;15937;50.612;6.656;2022-09-14T17:31:49;15.60;99.90
26270;DHT22;15937;50.612;6.656;2022-09-14T17:35:52;15.60;99.90
26270;DHT22;15937;50.612;6.656;2022-09-14T17:39:54;15.60;99.90
26270;DHT22;15937;50.612;6.656;2022-09-14T17:43:56;15.60;99.90
26270;DHT22;15937;50.612;6.656;2022-09-14T17:47:58;15.50;99.90
26270;DHT22;15937;50.612;6.656;2022-09-14T17:52:00;15.40;99.90
26270;DHT22;15937;50.612;6.656;2022-09-14T17:56:02;15.50;99.90
26270;DHT22;15937;50.612;6.656;2022-09-14T18:00:04;15.40;99.90
26270;DHT22;15937;50.612;6.656;2022-09-14T18:04:08;15.40;99.90
26270;DHT22;15937;50.612;6.656;2022-09-14T18:08:10;15.20;99.90
26270;DHT22;15937;50.612;6.656;2022-09-14T18:12:12;15.30;99.90
26270;DHT22;15937;50.612;6.656;2022-09-14T18:16:17;15.20;99.90
26270;DHT22;15937;50.612;6.656;2022-09-14T18:20:19;15.20;99.90
26270;DHT22;15937;50.612;6.656;2022-09-14T18:24:21;15.20;99.90
26270;DHT22;15937;50.612;6.656;2022-09-14T18:28:22;15.10;99.90
26270;DHT22;15937;50.612;6.656;2022-09-14T18:32:24;15.20;99.90
26270;DHT22;15937;50.612;6.656;2022-09-14T18:36:26;15.10;99.90
26270;DHT22;15937;50.612;6.656;2022-09-14T18:40:31;15.10;99.90
26270;DHT22;15937;50.612;6.656;2022-09-14T18:44:33;15.00;99.90
26270;DHT22;15937;50.612;6.656;2022-09-14T18:48:34;14.90;99.90
26270;DHT22;15937;50.612;6.656;2022-09-14T18:52:36;14.90;99.90
26270;DHT22;15937;50.612;6.656;2022-09-14T18:56:38;14.90;99.90
26270;DHT22;15937;50.612;6.656;2022-09-14T19:00:40;14.80;99.90
26270;DHT22;15937;50.612;6.656;2022-09-14T19:04:45;14.90;99.90
26270;DHT22;15937;50.612;6.656;2022-09-14T19:08:47;14.80;99.90
26270;DHT22;15937;50.612;6.656;2022-09-14T19:12:49;14.80;99.90
26270;DHT22;15937;50.612;6.656;2022-09-14T19:16:54;14.70;99.90
26270;DHT22;15937;50.612;6.656;2022-09-14T19:21:01;14.70;99.90
26270;DHT22;15937;50.612;6.656;2022-09-14T19:25:07;14.70;99.90
26270;DHT22;15937;50.612;6.656;2022-09-14T19:29:09;14.80;99.90
26270;DHT22;15937;50.612;6.656;2022-09-14T19:33:11;14.80;99.90
26270;DHT22;15937;50.612;6.656;2022-09-14T19:37:12;14.60;99.90
26270;DHT22;15937;50.612;6.656;2022-09-14T19:41:14;14.60;99.90
26270;DHT22;15937;50.612;6.656;2022-09-14T19:45:16;14.60;99.90
26270;DHT22;15937;50.612;6.656;2022-09-14T19:49:19;14.40;99.90
26270;DHT22;15937;50.612;6.656;2022-09-14T19:53:21;14.40;99.90
26270;DHT22;15937;50.612;6.656;2022-09-14T19:57:22;14.40;99.90
26270;DHT22;15937;50.612;6.656;2022-09-14T20:01:24;14.40;99.90
26270;DHT22;15937;50.612;6.656;2022-09-14T20:05:27;14.40;99.90
26270;DHT22;15937;50.612;6.656;2022-09-14T20:09:29;14.50;99.90
26270;DHT22;15937;50.612;6.656;2022-09-14T20:13:32;14.40;99.90
26270;DHT22;15937;50.612;6.656;2022-09-14T20:17:33;14.50;99.90
26270;DHT22;15937;50.612;6.656;2022-09-14T20:21:35;14.40;99.90
26270;DHT22;15937;50.612;6.656;2022-09-14T20:25:37;14.40;99.90
26270;DHT22;15937;50.612;6.656;2022-09-14T20:29:39;14.30;99.90
26270;DHT22;15937;50.612;6.656;2022-09-14T20:33:40;14.40;99.90
26270;DHT22;15937;50.612;6.656;2022-09-14T20:37:42;14.40;99.90
26270;DHT22;15937;50.612;6.656;2022-09-14T20:41:44;14.30;99.90
26270;DHT22;15937;50.612;6.656;2022-09-14T20:45:46;14.40;99.90
26270;DHT22;15937;50.612;6.656;2022-09-14T20:49:47;14.40;99.90
26270;DHT22;15937;50.612;6.656;2022-09-14T20:53:49;14.40;99.90
26270;DHT22;15937;50.612;6.656;2022-09-14T20:57:51;14.50;99.90
26270;DHT22;15937;50.612;6.656;2022-09-14T21:01:52;14.50;99.90
26270;DHT22;15937;50.612;6.656;2022-09-14T21:05:54;14.40;99.90
26270;DHT22;15937;50.612;6.656;2022-09-14T21:09:56;14.40;99.90
26270;DHT22;15937;50.612;6.656;2022-09-14T21:13:57;14.40;99.90
26270;DHT22;15937;50.612;6.656;2022-09-14T21:17:59;14.30;99.90
26270;DHT22;15937;50.612;6.656;2022-09-14T21:22:01;14.20;99.90
26270;DHT22;15937;50.612;6.656;2022-09-14T21:26:03;14.10;99.90
26270;DHT22;15937;50.612;6.656;2022-09-14T21:30:05;14.10;99.90
26270;DHT22;15937;50.612;6.656;2022-09-14T21:34:07;13.90;99.90
26270;DHT22;15937;50.612;6.656;2022-09-14T21:38:10;13.90;99.90
26270;DHT22;15937;50.612;6.656;2022-09-14T21:42:12;13.90;99.90
26270;DHT22;15937;50.612;6.656;2022-09-14T21:46:14;13.80;99.90
26270;DHT22;15937;50.612;6.656;2022-09-14T21:50:16;14.00;99.90
26270;DHT22;15937;50.612;6.656;2022-09-14T21:54:18;13.90;99.90
26270;DHT22;15937;50.612;6.656;2022-09-14T21:58:20;13.80;99.90
26270;DHT22;15937;50.612;6.656;2022-09-14T22:02:21;13.80;99.90
26270;DHT22;15937;50.612;6.656;2022-09-14T22:06:24;13.90;99.90
26270;DHT22;15937;50.612;6.656;2022-09-14T22:10:27;13.90;99.90
26270;DHT22;15937;50.612;6.656;2022-09-14T22:14:29;13.90;99.90
26270;DHT22;15937;50.612;6.656;2022-09-14T22:18:30;13.90;99.90
26270;DHT22;15937;50.612;6.656;2022-09-14T22:22:32;13.80;99.90
26270;DHT22;15937;50.612;6.656;2022-09-14T22:26:34;13.80;99.90
26270;DHT22;15937;50.612;6.656;2022-09-14T22:30:41;13.80;99.90
26270;DHT22;15937;50.612;6.656;2022-09-14T22:34:43;13.80;99.90
26270;DHT22;15937;50.612;6.656;2022-09-14T22:38:50;13.80;99.90
26270;DHT22;15937;50.612;6.656;2022-09-14T22:42:52;13.80;99.90
26270;DHT22;15937;50.612;6.656;2022-09-14T22:46:53;13.80;99.90
26270;DHT22;15937;50.612;6.656;2022-09-14T22:50:55;13.80;99.90
26270;DHT22;15937;50.612;6.656;2022-09-14T22:54:57;13.90;99.90
26270;DHT22;15937;50.612;6.656;2022-09-14T22:58:59;13.80;99.90
26270;DHT22;15937;50.612;6.656;2022-09-14T23:03:01;13.70;99.90
26270;DHT22;15937;50.612;6.656;2022-09-14T23:07:03;13.80;99.90
26270;DHT22;15937;50.612;6.656;2022-09-14T23:11:07;13.80;99.90
26270;DHT22;15937;50.612;6.656;2022-09-14T23:15:11;13.80;99.90
26270;DHT22;15937;50.612;6.656;2022-09-14T23:19:14;13.80;99.90
26270;DHT22;15937;50.612;6.656;2022-09-14T23:23:15;13.70;99.90
26270;DHT22;15937;50.612;6.656;2022-09-14T23:27:17;13.70;99.90
26270;DHT22;15937;50.612;6.656;2022-09-14T23:31:18;13.70;99.90
26270;DHT22;15937;50.612;6.656;2022-09-14T23:35:20;13.60;99.90
26270;DHT22;15937;50.612;6.656;2022-09-14T23:39:22;13.60;99.90
26270;DHT22;15937;50.612;6.656;2022-09-14T23:43:24;13.50;99.90
26270;DHT22;15937;50.612;6.656;2022-09-14T23:47:25;13.50;99.90
26270;DHT22;15937;50.612;6.656;2022-09-14T23:51:27;13.50;99.90
26270;DHT22;15937;50.612;6.656;2022-09-14T23:55:28;13.50;99.90
26270;DHT22;15937;50.612;6.656;2022-09-14T23:59:30;13.50;99.90
